createdAt,value
2023-05-19T00:03:07.616Z,50
2023-05-19T00:15:07.393Z,50
2023-05-19T00:27:07.510Z,50
2023-05-19T00:39:07.492Z,50
2023-05-19T00:51:07.452Z,50
2023-05-19T01:03:07.550Z,50
2023-05-19T01:15:07.577Z,50
2023-05-19T01:27:07.570Z,50
2023-05-19T01:39:07.506Z,50
2023-05-19T01:51:07.495Z,50
2023-05-19T02:03:07.727Z,50
2023-05-19T02:15:07.655Z,50
2023-05-19T02:27:07.571Z,50
2023-05-19T02:39:07.576Z,50
2023-05-19T02:51:07.699Z,50
2023-05-19T03:03:07.742Z,50
2023-05-19T03:15:07.602Z,50
2023-05-19T03:27:07.588Z,50
2023-05-19T03:39:07.714Z,50
2023-05-19T03:51:07.759Z,50
2023-05-19T04:03:07.757Z,50
2023-05-19T04:15:07.620Z,50
2023-05-19T04:27:07.759Z,50
2023-05-19T04:39:10.739Z,50.5
2023-05-19T04:51:07.684Z,50.5
2023-05-19T05:03:08.047Z,50.5
2023-05-19T05:15:07.774Z,59
2023-05-19T05:27:07.762Z,68.5
2023-05-19T05:39:07.690Z,80
2023-05-19T05:51:07.889Z,88
2023-05-19T06:03:08.109Z,89.5
2023-05-19T06:15:07.838Z,88.5
2023-05-19T06:27:07.754Z,84
2023-05-19T06:39:07.930Z,88.5
2023-05-19T06:51:07.856Z,87.5
2023-05-19T07:03:08.035Z,84.5
2023-05-19T07:15:07.979Z,85
2023-05-19T07:27:07.957Z,84
2023-05-19T07:39:07.932Z,82
2023-05-19T07:51:07.900Z,76.5
2023-05-19T08:03:08.218Z,66
2023-05-19T08:15:08.169Z,59
2023-05-19T08:27:07.936Z,60
2023-05-19T08:39:07.913Z,55
2023-05-19T08:51:08.048Z,37
2023-05-19T09:15:07.988Z,40.5
2023-05-19T09:27:07.968Z,34
2023-05-19T09:39:08.193Z,38.5
2023-05-19T09:51:08.301Z,36
2023-05-19T10:03:08.215Z,35
2023-05-19T10:15:08.069Z,42.5
2023-05-19T10:27:08.139Z,46
2023-05-19T10:39:08.438Z,46
2023-05-19T10:51:08.063Z,44.5
2023-05-19T11:03:08.176Z,44.5
2023-05-19T11:15:08.191Z,44.5
2023-05-19T11:27:08.347Z,46
2023-05-19T11:39:08.116Z,45
2023-05-19T11:51:08.134Z,46
2023-05-19T12:03:08.668Z,45.5
2023-05-19T12:15:08.356Z,46
2023-05-19T12:27:08.153Z,46
2023-05-19T12:39:08.334Z,46
2023-05-19T12:51:08.278Z,44.5
2023-05-19T13:03:08.407Z,44.5
2023-05-19T13:15:08.188Z,46
2023-05-19T13:27:08.197Z,46
2023-05-19T13:39:08.312Z,46
2023-05-19T13:51:08.329Z,46
2023-05-19T14:03:08.319Z,47
2023-05-19T14:15:09.116Z,48
2023-05-19T14:27:08.339Z,48
2023-05-19T14:39:08.319Z,48
2023-05-19T14:51:08.253Z,48
2023-05-19T15:03:08.523Z,46.5
2023-05-19T15:15:08.366Z,48
2023-05-19T15:27:08.361Z,48
2023-05-19T15:39:08.307Z,48
2023-05-19T15:51:08.492Z,48
2023-05-19T16:03:08.494Z,48
2023-05-19T16:15:08.522Z,48
2023-05-19T16:27:08.343Z,48
2023-05-19T16:39:08.554Z,48
2023-05-19T16:51:08.560Z,48
2023-05-19T17:03:08.539Z,48
2023-05-19T17:15:08.389Z,48
2023-05-19T17:27:08.686Z,48
2023-05-19T17:39:08.504Z,48
2023-05-19T17:51:08.532Z,47.5
2023-05-19T18:03:08.720Z,48
2023-05-19T18:15:08.604Z,48
2023-05-19T18:27:08.529Z,48
2023-05-19T18:39:08.523Z,48
2023-05-19T18:51:08.667Z,48.5
2023-05-19T19:03:08.689Z,48.5
2023-05-19T19:15:08.600Z,48.5
2023-05-19T19:27:08.672Z,48.5
2023-05-19T19:39:08.754Z,50
2023-05-19T19:51:08.738Z,50
2023-05-19T20:03:08.713Z,50
2023-05-19T20:15:08.974Z,50
2023-05-19T20:27:08.734Z,50
2023-05-19T20:39:08.771Z,48.5
2023-05-19T20:51:08.653Z,50
2023-05-19T21:03:08.840Z,50
2023-05-19T21:15:08.790Z,50
2023-05-19T21:27:09.031Z,50
2023-05-19T21:39:08.668Z,48.5
2023-05-19T21:51:08.865Z,50
2023-05-19T22:03:09.036Z,48.5
2023-05-19T22:15:08.879Z,50
2023-05-19T22:39:09.262Z,50
2023-05-19T22:51:08.911Z,51.5
2023-05-19T23:03:09.105Z,50.5
2023-05-19T23:15:08.896Z,50.5
2023-05-19T23:27:08.898Z,51.5
2023-05-19T23:39:08.803Z,53
2023-05-19T23:51:08.979Z,60.5
